sensor_id;sensor_type;location;lat;lon;timestamp;P1;durP1;ratioP1;P2;durP2;ratioP2
61413;SDS011;47279;52.426;10.488;2023-08-17T00:01:29;0.88;;;0.88;;
61413;SDS011;47279;52.426;10.488;2023-08-17T00:03:55;0.90;;;0.90;;
61413;SDS011;47279;52.426;10.488;2023-08-17T00:06:21;0.90;;;0.90;;
61413;SDS011;47279;52.426;10.488;2023-08-17T00:08:47;0.75;;;0.75;;
61413;SDS011;47279;52.426;10.488;2023-08-17T00:11:12;0.88;;;0.88;;
61413;SDS011;47279;52.426;10.488;2023-08-17T00:13:38;0.77;;;0.77;;
61413;SDS011;47279;52.426;10.488;2023-08-17T00:16:04;0.90;;;0.90;;
61413;SDS011;47279;52.426;10.488;2023-08-17T00:18:30;0.73;;;0.73;;
61413;SDS011;47279;52.426;10.488;2023-08-17T00:20:56;1.30;;;0.85;;
61413;SDS011;47279;52.426;10.488;2023-08-17T00:23:22;0.90;;;0.90;;
61413;SDS011;47279;52.426;10.488;2023-08-17T00:25:48;0.82;;;0.80;;
61413;SDS011;47279;52.426;10.488;2023-08-17T00:28:14;0.82;;;0.82;;
61413;SDS011;47279;52.426;10.488;2023-08-17T00:30:40;1.00;;;1.00;;
61413;SDS011;47279;52.426;10.488;2023-08-17T00:33:06;0.90;;;0.90;;
61413;SDS011;47279;52.426;10.488;2023-08-17T00:35:32;0.70;;;0.70;;
61413;SDS011;47279;52.426;10.488;2023-08-17T00:37:59;0.95;;;0.95;;
61413;SDS011;47279;52.426;10.488;2023-08-17T00:40:25;0.95;;;0.82;;
61413;SDS011;47279;52.426;10.488;2023-08-17T00:42:51;0.88;;;0.88;;
61413;SDS011;47279;52.426;10.488;2023-08-17T00:45:17;0.75;;;0.75;;
61413;SDS011;47279;52.426;10.488;2023-08-17T00:47:43;0.95;;;0.85;;
61413;SDS011;47279;52.426;10.488;2023-08-17T00:50:10;0.90;;;0.90;;
61413;SDS011;47279;52.426;10.488;2023-08-17T00:52:37;0.77;;;0.77;;
61413;SDS011;47279;52.426;10.488;2023-08-17T00:55:03;1.23;;;1.02;;
61413;SDS011;47279;52.426;10.488;2023-08-17T00:57:31;0.80;;;0.80;;
61413;SDS011;47279;52.426;10.488;2023-08-17T00:59:57;0.80;;;0.80;;
61413;SDS011;47279;52.426;10.488;2023-08-17T01:02:23;0.93;;;0.90;;
61413;SDS011;47279;52.426;10.488;2023-08-17T01:04:49;0.90;;;0.90;;
61413;SDS011;47279;52.426;10.488;2023-08-17T01:07:15;1.08;;;0.98;;
61413;SDS011;47279;52.426;10.488;2023-08-17T01:09:41;1.00;;;1.00;;
61413;SDS011;47279;52.426;10.488;2023-08-17T01:12:17;0.82;;;0.82;;
61413;SDS011;47279;52.426;10.488;2023-08-17T01:14:51;0.73;;;0.73;;
61413;SDS011;47279;52.426;10.488;2023-08-17T01:17:34;0.98;;;0.90;;
61413;SDS011;47279;52.426;10.488;2023-08-17T01:20:03;0.80;;;0.80;;
61413;SDS011;47279;52.426;10.488;2023-08-17T01:22:30;0.85;;;0.85;;
61413;SDS011;47279;52.426;10.488;2023-08-17T01:24:57;0.90;;;0.90;;
61413;SDS011;47279;52.426;10.488;2023-08-17T01:27:24;0.80;;;0.80;;
61413;SDS011;47279;52.426;10.488;2023-08-17T01:29:50;0.80;;;0.80;;
61413;SDS011;47279;52.426;10.488;2023-08-17T01:32:33;1.00;;;0.90;;
61413;SDS011;47279;52.426;10.488;2023-08-17T01:35:11;0.82;;;0.82;;
61413;SDS011;47279;52.426;10.488;2023-08-17T01:37:40;1.00;;;1.00;;
61413;SDS011;47279;52.426;10.488;2023-08-17T01:40:07;1.10;;;1.00;;
61413;SDS011;47279;52.426;10.488;2023-08-17T01:42:34;0.82;;;0.82;;
61413;SDS011;47279;52.426;10.488;2023-08-17T01:45:01;0.93;;;0.93;;
61413;SDS011;47279;52.426;10.488;2023-08-17T01:47:27;1.15;;;1.05;;
61413;SDS011;47279;52.426;10.488;2023-08-17T01:49:53;1.13;;;0.95;;
61413;SDS011;47279;52.426;10.488;2023-08-17T01:52:19;1.05;;;0.90;;
61413;SDS011;47279;52.426;10.488;2023-08-17T01:54:45;0.90;;;0.85;;
61413;SDS011;47279;52.426;10.488;2023-08-17T01:57:11;0.95;;;0.95;;
61413;SDS011;47279;52.426;10.488;2023-08-17T01:59:37;0.93;;;0.93;;
61413;SDS011;47279;52.426;10.488;2023-08-17T02:02:03;1.08;;;0.90;;
61413;SDS011;47279;52.426;10.488;2023-08-17T02:04:28;0.80;;;0.80;;
61413;SDS011;47279;52.426;10.488;2023-08-17T02:06:54;0.70;;;0.70;;
61413;SDS011;47279;52.426;10.488;2023-08-17T02:09:20;0.80;;;0.80;;
61413;SDS011;47279;52.426;10.488;2023-08-17T02:11:46;0.80;;;0.80;;
61413;SDS011;47279;52.426;10.488;2023-08-17T02:14:12;0.82;;;0.80;;
61413;SDS011;47279;52.426;10.488;2023-08-17T02:16:38;0.80;;;0.80;;
61413;SDS011;47279;52.426;10.488;2023-08-17T02:19:04;0.80;;;0.80;;
61413;SDS011;47279;52.426;10.488;2023-08-17T02:21:30;0.80;;;0.80;;
61413;SDS011;47279;52.426;10.488;2023-08-17T02:23:56;1.30;;;0.80;;
61413;SDS011;47279;52.426;10.488;2023-08-17T02:26:22;1.08;;;0.98;;
61413;SDS011;47279;52.426;10.488;2023-08-17T02:28:48;0.70;;;0.70;;
61413;SDS011;47279;52.426;10.488;2023-08-17T02:31:14;1.27;;;1.05;;
61413;SDS011;47279;52.426;10.488;2023-08-17T02:33:40;1.45;;;1.10;;
61413;SDS011;47279;52.426;10.488;2023-08-17T02:36:06;1.08;;;0.98;;
61413;SDS011;47279;52.426;10.488;2023-08-17T02:38:32;0.90;;;0.90;;
61413;SDS011;47279;52.426;10.488;2023-08-17T02:40:58;0.88;;;0.88;;
61413;SDS011;47279;52.426;10.488;2023-08-17T02:43:24;0.90;;;0.90;;
61413;SDS011;47279;52.426;10.488;2023-08-17T02:45:50;1.25;;;0.90;;
61413;SDS011;47279;52.426;10.488;2023-08-17T02:48:16;0.90;;;0.70;;
61413;SDS011;47279;52.426;10.488;2023-08-17T02:50:42;1.02;;;0.93;;
61413;SDS011;47279;52.426;10.488;2023-08-17T02:53:08;1.42;;;0.90;;
61413;SDS011;47279;52.426;10.488;2023-08-17T02:55:34;1.00;;;0.90;;
61413;SDS011;47279;52.426;10.488;2023-08-17T02:58:00;1.10;;;1.00;;
61413;SDS011;47279;52.426;10.488;2023-08-17T03:00:26;0.88;;;0.88;;
61413;SDS011;47279;52.426;10.488;2023-08-17T03:02:52;1.38;;;1.27;;
61413;SDS011;47279;52.426;10.488;2023-08-17T03:05:18;1.20;;;1.10;;
61413;SDS011;47279;52.426;10.488;2023-08-17T03:07:44;1.55;;;1.10;;
61413;SDS011;47279;52.426;10.488;2023-08-17T03:10:10;1.17;;;1.08;;
61413;SDS011;47279;52.426;10.488;2023-08-17T03:12:37;1.10;;;1.00;;
61413;SDS011;47279;52.426;10.488;2023-08-17T03:15:04;0.90;;;0.90;;
61413;SDS011;47279;52.426;10.488;2023-08-17T03:17:30;1.27;;;0.98;;
61413;SDS011;47279;52.426;10.488;2023-08-17T03:19:56;1.00;;;1.00;;
61413;SDS011;47279;52.426;10.488;2023-08-17T03:22:24;0.88;;;0.88;;
61413;SDS011;47279;52.426;10.488;2023-08-17T03:24:50;1.10;;;1.00;;
61413;SDS011;47279;52.426;10.488;2023-08-17T03:27:16;1.52;;;1.00;;
61413;SDS011;47279;52.426;10.488;2023-08-17T03:29:42;0.93;;;0.93;;
61413;SDS011;47279;52.426;10.488;2023-08-17T03:32:08;1.05;;;0.90;;
61413;SDS011;47279;52.426;10.488;2023-08-17T03:34:34;1.10;;;1.00;;
61413;SDS011;47279;52.426;10.488;2023-08-17T03:37:00;0.77;;;0.77;;
61413;SDS011;47279;52.426;10.488;2023-08-17T03:39:26;0.85;;;0.85;;
61413;SDS011;47279;52.426;10.488;2023-08-17T03:41:52;0.90;;;0.90;;
61413;SDS011;47279;52.426;10.488;2023-08-17T03:44:18;0.85;;;0.82;;
61413;SDS011;47279;52.426;10.488;2023-08-17T03:46:44;0.90;;;0.90;;
61413;SDS011;47279;52.426;10.488;2023-08-17T03:49:10;0.82;;;0.82;;
61413;SDS011;47279;52.426;10.488;2023-08-17T03:51:36;1.00;;;0.90;;
61413;SDS011;47279;52.426;10.488;2023-08-17T03:54:02;0.75;;;0.75;;
61413;SDS011;47279;52.426;10.488;2023-08-17T03:56:28;0.95;;;0.95;;
61413;SDS011;47279;52.426;10.488;2023-08-17T03:58:54;0.80;;;0.80;;
61413;SDS011;47279;52.426;10.488;2023-08-17T04:01:20;1.33;;;0.90;;
61413;SDS011;47279;52.426;10.488;2023-08-17T04:03:46;0.98;;;0.98;;
61413;SDS011;47279;52.426;10.488;2023-08-17T04:06:12;1.13;;;0.95;;
61413;SDS011;47279;52.426;10.488;2023-08-17T04:08:38;0.90;;;0.80;;
61413;SDS011;47279;52.426;10.488;2023-08-17T04:11:04;1.13;;;1.02;;
61413;SDS011;47279;52.426;10.488;2023-08-17T04:13:30;0.70;;;0.70;;
61413;SDS011;47279;52.426;10.488;2023-08-17T04:15:56;0.80;;;0.80;;
61413;SDS011;47279;52.426;10.488;2023-08-17T04:18:22;0.90;;;0.90;;
61413;SDS011;47279;52.426;10.488;2023-08-17T04:20:48;1.20;;;1.00;;
61413;SDS011;47279;52.426;10.488;2023-08-17T04:23:14;1.00;;;0.90;;
61413;SDS011;47279;52.426;10.488;2023-08-17T04:25:40;1.17;;;1.08;;
61413;SDS011;47279;52.426;10.488;2023-08-17T04:28:06;1.55;;;1.00;;
61413;SDS011;47279;52.426;10.488;2023-08-17T04:30:32;0.95;;;0.90;;
61413;SDS011;47279;52.426;10.488;2023-08-17T04:32:58;0.90;;;0.90;;
61413;SDS011;47279;52.426;10.488;2023-08-17T04:35:24;1.00;;;1.00;;
61413;SDS011;47279;52.426;10.488;2023-08-17T04:37:50;1.10;;;1.00;;
61413;SDS011;47279;52.426;10.488;2023-08-17T04:40:16;1.15;;;1.00;;
61413;SDS011;47279;52.426;10.488;2023-08-17T04:42:42;1.10;;;1.08;;
61413;SDS011;47279;52.426;10.488;2023-08-17T04:45:08;1.10;;;1.05;;
61413;SDS011;47279;52.426;10.488;2023-08-17T04:47:34;1.42;;;1.17;;
61413;SDS011;47279;52.426;10.488;2023-08-17T04:50:00;0.98;;;0.95;;
61413;SDS011;47279;52.426;10.488;2023-08-17T04:52:26;1.00;;;1.00;;
61413;SDS011;47279;52.426;10.488;2023-08-17T04:54:52;0.80;;;0.80;;
61413;SDS011;47279;52.426;10.488;2023-08-17T04:57:18;0.90;;;0.80;;
61413;SDS011;47279;52.426;10.488;2023-08-17T04:59:44;1.27;;;1.17;;
61413;SDS011;47279;52.426;10.488;2023-08-17T05:02:10;1.20;;;1.10;;
61413;SDS011;47279;52.426;10.488;2023-08-17T05:04:36;1.25;;;1.10;;
61413;SDS011;47279;52.426;10.488;2023-08-17T05:07:02;1.13;;;1.10;;
61413;SDS011;47279;52.426;10.488;2023-08-17T05:09:28;1.30;;;1.20;;
61413;SDS011;47279;52.426;10.488;2023-08-17T05:11:55;0.90;;;0.90;;
61413;SDS011;47279;52.426;10.488;2023-08-17T05:14:21;1.10;;;1.00;;
61413;SDS011;47279;52.426;10.488;2023-08-17T05:16:47;1.20;;;1.10;;
61413;SDS011;47279;52.426;10.488;2023-08-17T05:19:13;0.98;;;0.90;;
61413;SDS011;47279;52.426;10.488;2023-08-17T05:21:39;0.90;;;0.90;;
61413;SDS011;47279;52.426;10.488;2023-08-17T05:24:05;0.90;;;0.90;;
61413;SDS011;47279;52.426;10.488;2023-08-17T05:26:31;0.93;;;0.90;;
61413;SDS011;47279;52.426;10.488;2023-08-17T05:28:57;1.30;;;1.20;;
61413;SDS011;47279;52.426;10.488;2023-08-17T05:31:23;1.38;;;1.27;;
61413;SDS011;47279;52.426;10.488;2023-08-17T05:33:49;1.10;;;1.10;;
61413;SDS011;47279;52.426;10.488;2023-08-17T05:36:15;0.80;;;0.80;;
61413;SDS011;47279;52.426;10.488;2023-08-17T05:38:41;1.00;;;0.90;;
61413;SDS011;47279;52.426;10.488;2023-08-17T05:41:07;1.63;;;1.30;;
61413;SDS011;47279;52.426;10.488;2023-08-17T05:43:33;1.38;;;1.15;;
61413;SDS011;47279;52.426;10.488;2023-08-17T05:45:59;0.90;;;0.90;;
61413;SDS011;47279;52.426;10.488;2023-08-17T05:48:25;0.90;;;0.90;;
61413;SDS011;47279;52.426;10.488;2023-08-17T05:50:51;1.00;;;1.00;;
61413;SDS011;47279;52.426;10.488;2023-08-17T05:53:17;1.13;;;1.02;;
61413;SDS011;47279;52.426;10.488;2023-08-17T05:55:43;0.85;;;0.85;;
61413;SDS011;47279;52.426;10.488;2023-08-17T05:58:09;1.10;;;1.00;;
61413;SDS011;47279;52.426;10.488;2023-08-17T06:00:35;0.80;;;0.80;;
61413;SDS011;47279;52.426;10.488;2023-08-17T06:03:01;1.02;;;0.95;;
61413;SDS011;47279;52.426;10.488;2023-08-17T06:05:28;0.90;;;0.90;;
61413;SDS011;47279;52.426;10.488;2023-08-17T06:07:55;1.00;;;1.00;;
61413;SDS011;47279;52.426;10.488;2023-08-17T06:10:21;1.52;;;1.42;;
61413;SDS011;47279;52.426;10.488;2023-08-17T06:12:51;1.10;;;1.00;;
61413;SDS011;47279;52.426;10.488;2023-08-17T06:15:18;1.00;;;1.00;;
61413;SDS011;47279;52.426;10.488;2023-08-17T06:17:44;0.80;;;0.80;;
61413;SDS011;47279;52.426;10.488;2023-08-17T06:20:10;1.20;;;1.10;;
61413;SDS011;47279;52.426;10.488;2023-08-17T06:22:36;1.13;;;0.90;;
61413;SDS011;47279;52.426;10.488;2023-08-17T06:25:03;1.10;;;1.00;;
61413;SDS011;47279;52.426;10.488;2023-08-17T06:27:30;1.02;;;1.02;;
61413;SDS011;47279;52.426;10.488;2023-08-17T06:29:56;0.93;;;0.93;;
61413;SDS011;47279;52.426;10.488;2023-08-17T06:32:22;1.08;;;1.00;;
61413;SDS011;47279;52.426;10.488;2023-08-17T06:34:48;1.25;;;1.00;;
61413;SDS011;47279;52.426;10.488;2023-08-17T06:37:14;1.08;;;1.00;;
61413;SDS011;47279;52.426;10.488;2023-08-17T06:39:40;1.23;;;1.00;;
61413;SDS011;47279;52.426;10.488;2023-08-17T06:42:06;1.05;;;1.02;;
61413;SDS011;47279;52.426;10.488;2023-08-17T06:44:32;0.80;;;0.80;;
61413;SDS011;47279;52.426;10.488;2023-08-17T06:46:57;0.90;;;0.90;;
61413;SDS011;47279;52.426;10.488;2023-08-17T06:49:24;1.08;;;0.98;;
61413;SDS011;47279;52.426;10.488;2023-08-17T06:51:50;1.30;;;1.20;;
61413;SDS011;47279;52.426;10.488;2023-08-17T06:54:16;1.35;;;1.25;;
61413;SDS011;47279;52.426;10.488;2023-08-17T06:56:42;1.13;;;1.02;;
61413;SDS011;47279;52.426;10.488;2023-08-17T06:59:08;1.00;;;1.00;;
61413;SDS011;47279;52.426;10.488;2023-08-17T07:01:34;0.98;;;0.98;;
61413;SDS011;47279;52.426;10.488;2023-08-17T07:04:00;1.45;;;1.30;;
61413;SDS011;47279;52.426;10.488;2023-08-17T07:06:26;1.25;;;1.00;;
61413;SDS011;47279;52.426;10.488;2023-08-17T07:08:52;1.17;;;1.08;;
61413;SDS011;47279;52.426;10.488;2023-08-17T07:11:18;1.10;;;1.00;;
61413;SDS011;47279;52.426;10.488;2023-08-17T07:13:44;0.82;;;0.82;;
61413;SDS011;47279;52.426;10.488;2023-08-17T07:16:10;1.23;;;1.13;;
61413;SDS011;47279;52.426;10.488;2023-08-17T07:18:36;0.98;;;0.98;;
61413;SDS011;47279;52.426;10.488;2023-08-17T07:21:02;0.90;;;0.90;;
61413;SDS011;47279;52.426;10.488;2023-08-17T07:23:28;0.98;;;0.98;;
61413;SDS011;47279;52.426;10.488;2023-08-17T07:25:54;0.90;;;0.90;;
61413;SDS011;47279;52.426;10.488;2023-08-17T07:28:20;1.27;;;1.17;;
61413;SDS011;47279;52.426;10.488;2023-08-17T07:30:45;0.90;;;0.90;;
61413;SDS011;47279;52.426;10.488;2023-08-17T07:33:11;1.10;;;1.00;;
61413;SDS011;47279;52.426;10.488;2023-08-17T07:35:37;1.23;;;1.13;;
61413;SDS011;47279;52.426;10.488;2023-08-17T07:38:03;0.90;;;0.90;;
61413;SDS011;47279;52.426;10.488;2023-08-17T07:40:30;1.20;;;1.10;;
61413;SDS011;47279;52.426;10.488;2023-08-17T07:42:56;0.90;;;0.90;;
61413;SDS011;47279;52.426;10.488;2023-08-17T07:45:22;0.90;;;0.90;;
61413;SDS011;47279;52.426;10.488;2023-08-17T07:47:48;0.90;;;0.90;;
61413;SDS011;47279;52.426;10.488;2023-08-17T07:50:14;0.80;;;0.80;;
61413;SDS011;47279;52.426;10.488;2023-08-17T07:52:40;0.90;;;0.90;;
61413;SDS011;47279;52.426;10.488;2023-08-17T07:55:06;1.15;;;1.05;;
61413;SDS011;47279;52.426;10.488;2023-08-17T07:57:32;1.00;;;1.00;;
61413;SDS011;47279;52.426;10.488;2023-08-17T07:59:58;1.00;;;1.00;;
61413;SDS011;47279;52.426;10.488;2023-08-17T08:02:24;1.10;;;1.00;;
61413;SDS011;47279;52.426;10.488;2023-08-17T08:04:50;1.05;;;1.00;;
61413;SDS011;47279;52.426;10.488;2023-08-17T08:07:16;0.80;;;0.80;;
61413;SDS011;47279;52.426;10.488;2023-08-17T08:09:42;1.17;;;1.08;;
61413;SDS011;47279;52.426;10.488;2023-08-17T08:12:07;1.50;;;1.40;;
61413;SDS011;47279;52.426;10.488;2023-08-17T08:14:34;1.00;;;1.00;;
61413;SDS011;47279;52.426;10.488;2023-08-17T08:17:00;1.17;;;1.10;;
61413;SDS011;47279;52.426;10.488;2023-08-17T08:19:26;1.20;;;1.00;;
61413;SDS011;47279;52.426;10.488;2023-08-17T08:21:52;1.23;;;1.13;;
61413;SDS011;47279;52.426;10.488;2023-08-17T08:24:18;0.95;;;0.95;;
61413;SDS011;47279;52.426;10.488;2023-08-17T08:26:44;1.23;;;1.13;;
61413;SDS011;47279;52.426;10.488;2023-08-17T08:29:10;1.30;;;1.20;;
61413;SDS011;47279;52.426;10.488;2023-08-17T08:31:36;1.33;;;1.00;;
61413;SDS011;47279;52.426;10.488;2023-08-17T08:34:02;1.10;;;1.00;;
61413;SDS011;47279;52.426;10.488;2023-08-17T08:36:28;1.20;;;1.10;;
61413;SDS011;47279;52.426;10.488;2023-08-17T08:38:53;1.10;;;1.00;;
61413;SDS011;47279;52.426;10.488;2023-08-17T08:41:19;1.15;;;1.05;;
61413;SDS011;47279;52.426;10.488;2023-08-17T08:43:47;1.20;;;1.10;;
61413;SDS011;47279;52.426;10.488;2023-08-17T08:46:13;1.00;;;1.00;;
61413;SDS011;47279;52.426;10.488;2023-08-17T08:48:40;1.23;;;1.23;;
61413;SDS011;47279;52.426;10.488;2023-08-17T08:51:07;1.10;;;1.02;;
61413;SDS011;47279;52.426;10.488;2023-08-17T08:53:37;1.23;;;1.17;;
61413;SDS011;47279;52.426;10.488;2023-08-17T08:58:31;1.10;;;1.08;;
61413;SDS011;47279;52.426;10.488;2023-08-17T09:00:58;0.90;;;0.90;;
61413;SDS011;47279;52.426;10.488;2023-08-17T09:03:26;1.20;;;1.10;;
61413;SDS011;47279;52.426;10.488;2023-08-17T09:05:51;1.13;;;1.08;;
61413;SDS011;47279;52.426;10.488;2023-08-17T09:08:21;0.90;;;0.90;;
61413;SDS011;47279;52.426;10.488;2023-08-17T09:10:48;1.30;;;1.20;;
61413;SDS011;47279;52.426;10.488;2023-08-17T09:13:14;0.90;;;0.90;;
61413;SDS011;47279;52.426;10.488;2023-08-17T09:15:40;0.95;;;0.90;;
61413;SDS011;47279;52.426;10.488;2023-08-17T09:18:06;1.27;;;1.00;;
61413;SDS011;47279;52.426;10.488;2023-08-17T09:20:36;1.20;;;0.98;;
61413;SDS011;47279;52.426;10.488;2023-08-17T09:23:12;0.88;;;0.88;;
61413;SDS011;47279;52.426;10.488;2023-08-17T09:25:38;1.30;;;1.02;;
61413;SDS011;47279;52.426;10.488;2023-08-17T09:28:11;1.20;;;1.10;;
61413;SDS011;47279;52.426;10.488;2023-08-17T09:30:49;0.90;;;0.90;;
61413;SDS011;47279;52.426;10.488;2023-08-17T09:33:16;1.20;;;1.10;;
61413;SDS011;47279;52.426;10.488;2023-08-17T09:35:43;0.95;;;0.95;;
61413;SDS011;47279;52.426;10.488;2023-08-17T09:38:09;1.10;;;1.00;;
61413;SDS011;47279;52.426;10.488;2023-08-17T09:40:35;0.93;;;0.93;;
61413;SDS011;47279;52.426;10.488;2023-08-17T09:43:02;0.98;;;0.98;;
61413;SDS011;47279;52.426;10.488;2023-08-17T09:45:28;1.40;;;1.30;;
61413;SDS011;47279;52.426;10.488;2023-08-17T09:47:57;1.20;;;1.10;;
61413;SDS011;47279;52.426;10.488;2023-08-17T09:50:23;1.05;;;0.95;;
61413;SDS011;47279;52.426;10.488;2023-08-17T09:52:53;1.20;;;1.10;;
61413;SDS011;47279;52.426;10.488;2023-08-17T09:55:20;1.27;;;1.17;;
61413;SDS011;47279;52.426;10.488;2023-08-17T09:57:48;1.27;;;1.17;;
61413;SDS011;47279;52.426;10.488;2023-08-17T10:00:14;1.10;;;1.10;;
61413;SDS011;47279;52.426;10.488;2023-08-17T10:02:40;1.30;;;1.20;;
61413;SDS011;47279;52.426;10.488;2023-08-17T10:05:06;1.10;;;1.00;;
61413;SDS011;47279;52.426;10.488;2023-08-17T10:07:35;0.98;;;0.95;;
61413;SDS011;47279;52.426;10.488;2023-08-17T10:10:04;1.13;;;1.10;;
61413;SDS011;47279;52.426;10.488;2023-08-17T10:12:33;1.30;;;1.20;;
61413;SDS011;47279;52.426;10.488;2023-08-17T10:15:06;1.00;;;1.00;;
61413;SDS011;47279;52.426;10.488;2023-08-17T10:17:35;1.35;;;1.25;;
61413;SDS011;47279;52.426;10.488;2023-08-17T10:20:03;1.27;;;1.17;;
61413;SDS011;47279;52.426;10.488;2023-08-17T10:22:31;1.00;;;1.00;;
61413;SDS011;47279;52.426;10.488;2023-08-17T10:25:00;1.45;;;1.35;;
61413;SDS011;47279;52.426;10.488;2023-08-17T10:27:26;1.38;;;1.27;;
61413;SDS011;47279;52.426;10.488;2023-08-17T10:29:52;1.40;;;1.30;;
61413;SDS011;47279;52.426;10.488;2023-08-17T10:32:20;1.20;;;1.20;;
61413;SDS011;47279;52.426;10.488;2023-08-17T10:34:47;1.15;;;1.08;;
61413;SDS011;47279;52.426;10.488;2023-08-17T10:37:13;1.30;;;1.20;;
61413;SDS011;47279;52.426;10.488;2023-08-17T10:39:44;1.40;;;1.30;;
61413;SDS011;47279;52.426;10.488;2023-08-17T10:42:11;1.27;;;1.17;;
61413;SDS011;47279;52.426;10.488;2023-08-17T10:47:18;1.30;;;1.05;;
61413;SDS011;47279;52.426;10.488;2023-08-17T10:49:44;1.20;;;1.10;;
61413;SDS011;47279;52.426;10.488;2023-08-17T10:52:10;1.25;;;1.15;;
61413;SDS011;47279;52.426;10.488;2023-08-17T10:54:37;1.40;;;1.30;;
61413;SDS011;47279;52.426;10.488;2023-08-17T11:00:04;1.20;;;1.10;;
61413;SDS011;47279;52.426;10.488;2023-08-17T11:02:33;1.33;;;1.23;;
61413;SDS011;47279;52.426;10.488;2023-08-17T11:05:00;1.88;;;1.20;;
61413;SDS011;47279;52.426;10.488;2023-08-17T11:07:27;1.13;;;1.02;;
61413;SDS011;47279;52.426;10.488;2023-08-17T11:09:55;1.38;;;1.27;;
61413;SDS011;47279;52.426;10.488;2023-08-17T11:12:25;1.10;;;1.10;;
61413;SDS011;47279;52.426;10.488;2023-08-17T11:14:51;1.52;;;1.20;;
61413;SDS011;47279;52.426;10.488;2023-08-17T11:17:20;1.25;;;1.20;;
61413;SDS011;47279;52.426;10.488;2023-08-17T11:19:46;1.40;;;1.30;;
61413;SDS011;47279;52.426;10.488;2023-08-17T11:22:15;1.42;;;1.33;;
61413;SDS011;47279;52.426;10.488;2023-08-17T11:24:41;1.27;;;1.20;;
61413;SDS011;47279;52.426;10.488;2023-08-17T11:27:08;1.52;;;1.30;;
61413;SDS011;47279;52.426;10.488;2023-08-17T11:29:35;1.25;;;1.00;;
61413;SDS011;47279;52.426;10.488;2023-08-17T11:32:01;1.10;;;1.10;;
61413;SDS011;47279;52.426;10.488;2023-08-17T11:34:27;1.20;;;1.10;;
61413;SDS011;47279;52.426;10.488;2023-08-17T11:36:56;1.20;;;1.10;;
61413;SDS011;47279;52.426;10.488;2023-08-17T11:39:22;1.30;;;1.20;;
61413;SDS011;47279;52.426;10.488;2023-08-17T11:41:48;1.10;;;1.00;;
61413;SDS011;47279;52.426;10.488;2023-08-17T11:44:16;0.88;;;0.88;;
61413;SDS011;47279;52.426;10.488;2023-08-17T11:46:46;1.00;;;1.00;;
61413;SDS011;47279;52.426;10.488;2023-08-17T11:49:12;1.42;;;1.33;;
61413;SDS011;47279;52.426;10.488;2023-08-17T11:51:38;1.30;;;1.20;;
61413;SDS011;47279;52.426;10.488;2023-08-17T11:54:05;1.50;;;1.20;;
61413;SDS011;47279;52.426;10.488;2023-08-17T11:56:32;1.65;;;1.30;;
61413;SDS011;47279;52.426;10.488;2023-08-17T11:58:58;1.40;;;1.30;;
61413;SDS011;47279;52.426;10.488;2023-08-17T12:01:24;1.10;;;1.10;;
61413;SDS011;47279;52.426;10.488;2023-08-17T12:03:50;1.17;;;1.08;;
61413;SDS011;47279;52.426;10.488;2023-08-17T12:06:16;1.25;;;1.17;;
61413;SDS011;47279;52.426;10.488;2023-08-17T12:08:45;1.20;;;1.10;;
61413;SDS011;47279;52.426;10.488;2023-08-17T12:11:11;1.88;;;1.40;;
61413;SDS011;47279;52.426;10.488;2023-08-17T12:13:37;1.30;;;1.20;;
61413;SDS011;47279;52.426;10.488;2023-08-17T12:16:03;1.55;;;1.45;;
61413;SDS011;47279;52.426;10.488;2023-08-17T12:18:32;1.40;;;1.30;;
61413;SDS011;47279;52.426;10.488;2023-08-17T12:20:59;1.47;;;1.37;;
61413;SDS011;47279;52.426;10.488;2023-08-17T12:23:25;1.60;;;1.40;;
61413;SDS011;47279;52.426;10.488;2023-08-17T12:25:54;1.63;;;1.33;;
61413;SDS011;47279;52.426;10.488;2023-08-17T12:28:21;1.50;;;1.40;;
61413;SDS011;47279;52.426;10.488;2023-08-17T12:30:48;1.30;;;1.20;;
61413;SDS011;47279;52.426;10.488;2023-08-17T12:33:22;1.65;;;1.30;;
61413;SDS011;47279;52.426;10.488;2023-08-17T12:35:48;2.17;;;1.50;;
61413;SDS011;47279;52.426;10.488;2023-08-17T12:38:14;1.50;;;1.40;;
61413;SDS011;47279;52.426;10.488;2023-08-17T12:40:40;1.55;;;1.42;;
61413;SDS011;47279;52.426;10.488;2023-08-17T12:43:06;1.90;;;1.80;;
61413;SDS011;47279;52.426;10.488;2023-08-17T12:45:32;1.60;;;1.50;;
61413;SDS011;47279;52.426;10.488;2023-08-17T12:47:59;1.40;;;1.30;;
61413;SDS011;47279;52.426;10.488;2023-08-17T12:50:25;2.05;;;1.45;;
61413;SDS011;47279;52.426;10.488;2023-08-17T12:52:51;1.60;;;1.35;;
61413;SDS011;47279;52.426;10.488;2023-08-17T12:55:17;1.40;;;1.30;;
61413;SDS011;47279;52.426;10.488;2023-08-17T12:57:43;1.73;;;1.48;;
61413;SDS011;47279;52.426;10.488;2023-08-17T13:00:09;1.60;;;1.50;;
61413;SDS011;47279;52.426;10.488;2023-08-17T13:02:35;1.50;;;1.40;;
61413;SDS011;47279;52.426;10.488;2023-08-17T13:05:01;1.30;;;1.20;;
61413;SDS011;47279;52.426;10.488;2023-08-17T13:07:27;1.25;;;1.15;;
61413;SDS011;47279;52.426;10.488;2023-08-17T13:09:53;1.20;;;1.10;;
61413;SDS011;47279;52.426;10.488;2023-08-17T13:12:19;1.40;;;1.30;;
61413;SDS011;47279;52.426;10.488;2023-08-17T13:14:45;1.30;;;1.20;;
61413;SDS011;47279;52.426;10.488;2023-08-17T13:17:11;1.40;;;1.30;;
61413;SDS011;47279;52.426;10.488;2023-08-17T13:19:39;2.08;;;1.42;;
61413;SDS011;47279;52.426;10.488;2023-08-17T13:22:05;1.65;;;1.25;;
61413;SDS011;47279;52.426;10.488;2023-08-17T13:24:31;1.35;;;1.25;;
61413;SDS011;47279;52.426;10.488;2023-08-17T13:26:57;1.50;;;1.40;;
61413;SDS011;47279;52.426;10.488;2023-08-17T13:29:23;2.25;;;1.60;;
61413;SDS011;47279;52.426;10.488;2023-08-17T13:31:49;1.45;;;1.35;;
61413;SDS011;47279;52.426;10.488;2023-08-17T13:34:15;1.95;;;1.40;;
61413;SDS011;47279;52.426;10.488;2023-08-17T13:36:41;1.30;;;1.13;;
61413;SDS011;47279;52.426;10.488;2023-08-17T13:39:07;1.70;;;1.40;;
61413;SDS011;47279;52.426;10.488;2023-08-17T13:41:33;2.30;;;1.40;;
61413;SDS011;47279;52.426;10.488;2023-08-17T13:43:59;1.40;;;1.30;;
61413;SDS011;47279;52.426;10.488;2023-08-17T13:46:27;1.73;;;1.45;;
61413;SDS011;47279;52.426;10.488;2023-08-17T13:48:53;1.50;;;1.10;;
61413;SDS011;47279;52.426;10.488;2023-08-17T13:51:19;1.42;;;1.30;;
61413;SDS011;47279;52.426;10.488;2023-08-17T13:53:45;1.55;;;1.45;;
61413;SDS011;47279;52.426;10.488;2023-08-17T13:56:11;1.23;;;1.13;;
61413;SDS011;47279;52.426;10.488;2023-08-17T13:58:37;1.30;;;1.20;;
61413;SDS011;47279;52.426;10.488;2023-08-17T14:01:03;1.23;;;1.13;;
61413;SDS011;47279;52.426;10.488;2023-08-17T14:03:28;1.05;;;1.02;;
61413;SDS011;47279;52.426;10.488;2023-08-17T14:05:55;1.60;;;1.50;;
61413;SDS011;47279;52.426;10.488;2023-08-17T14:08:21;1.55;;;1.42;;
61413;SDS011;47279;52.426;10.488;2023-08-17T14:10:47;1.30;;;1.20;;
61413;SDS011;47279;52.426;10.488;2023-08-17T14:13:13;1.40;;;1.30;;
61413;SDS011;47279;52.426;10.488;2023-08-17T14:15:39;1.35;;;1.25;;
61413;SDS011;47279;52.426;10.488;2023-08-17T14:18:05;1.60;;;1.50;;
61413;SDS011;47279;52.426;10.488;2023-08-17T14:20:31;1.50;;;1.40;;
61413;SDS011;47279;52.426;10.488;2023-08-17T14:22:57;1.58;;;1.48;;
61413;SDS011;47279;52.426;10.488;2023-08-17T14:25:22;1.40;;;1.30;;
61413;SDS011;47279;52.426;10.488;2023-08-17T14:27:48;1.45;;;1.35;;
61413;SDS011;47279;52.426;10.488;2023-08-17T14:30:14;1.77;;;1.30;;
61413;SDS011;47279;52.426;10.488;2023-08-17T14:32:40;1.48;;;1.20;;
61413;SDS011;47279;52.426;10.488;2023-08-17T14:35:06;1.63;;;1.30;;
61413;SDS011;47279;52.426;10.488;2023-08-17T14:37:32;1.45;;;1.35;;